Portada
METAR-TAF:

METAR-TAF

Aeropuertos :

Aeropuerto Internacional de Damasco

Damasco, Siria

latitud: 33-25N, longitud: 036-31E, altitud: 608 m

Observación

El informe se hizo hace 58 minutos, a las 07:00 UTC
Viento calma
Temperatura 11°C
Humedad 87%
Presión 1024 hPa
Visibilidad: 8000 m

METAR: OSDI 180700Z 00000KT 8000 11/09 Q1024

Hora: 09:58 (07:58 UTC)

Pronóstico

El informe se hizo hace 3 horas y 58 minutos, a las 04:00 UTC
Pronóstico válido del 18 a las 06 UTC al 19 a las 12 UTC
Viento 3 kt con dirección variable
Visibilidad: 3000 m
neblina
Evolucionando progresivamente
del 18 a las 07 UTC al 18 a las 09 UTC
Viento 10 kt del suroeste
Visibilidad 10 km o más
Escasas nubes a una altura de 3000 ft

TAF: OSDI 180400Z 1806/1912 VRB03KT 3000 BR BECMG 1807/1809 22010KT 9999 FEW030

Observaciones y pronósticos meteorológicos de más de 4000 aeropuertos (mensajes METAR y TAF).

Los puntos amarillos y rojos representan las estaciones disponibles.

Ponga el ratón en el punto deseado para ver el nombre de la estación.

Haga clic para ver las observaciones y los pronósticos meteorológicos.

Para cambiar el mapa : haga clic en los botones verdes con una cruz de color negro para hacer un zoom, en el botón verde con un guión para alejar o en las flechas verdes para mapas adyacentes.


METAR-TAF: